Time;durP1;ratioP1;P1;durP2;ratioP2;P2;SDS_P1;SDS_P2;PMS_P1;PMS_P2;Temp;Humidity;BMP_temperature;BMP_pressure;BME280_temperature;BME280_humidity;BME280_pressure;Samples;Min_cycle;Max_cycle;Signal;HPM_P1;HPM_P2
2021/05/24 00:04:21;;;;;;;4.72;2.40;;;;;;;;;;10357314;28;20051;-66
2021/05/24 00:09:22;;;;;;;3.17;2.65;;;;;;;;;;10355516;28;20535;-66
2021/05/24 00:14:21;;;;;;;2.65;2.45;;;;;;;;;;10356005;28;20068;-65
2021/05/24 00:19:19;;;;;;;4.20;2.97;;;;;;;;;;10357225;28;20048;-65
2021/05/24 00:24:17;;;;;;;2.42;2.22;;;;;;;;;;10363828;28;20052;-66
2021/05/24 00:29:19;;;;;;;3.35;2.70;;;;;;;;;;10363927;28;20082;-66
2021/05/24 00:34:17;;;;;;;2.47;2.25;;;;;;;;;;10363397;28;20071;-66
2021/05/24 00:39:16;;;;;;;5.68;2.53;;;;;;;;;;10364356;28;20408;-66
2021/05/24 00:44:14;;;;;;;5.95;3.17;;;;;;;;;;10362677;28;20063;-65
2021/05/24 00:49:11;;;;;;;3.97;2.53;;;;;;;;;;10361626;28;20076;-66
2021/05/24 00:54:09;;;;;;;2.90;2.20;;;;;;;;;;10362985;28;20059;-66
2021/05/24 00:59:08;;;;;;;3.08;2.50;;;;;;;;;;10363362;28;20044;-66
2021/05/24 01:04:06;;;;;;;2.63;2.20;;;;;;;;;;10362858;28;20074;-65
2021/05/24 01:09:04;;;;;;;6.18;2.20;;;;;;;;;;10362590;28;20087;-66
2021/05/24 01:14:03;;;;;;;6.80;2.60;;;;;;;;;;10362131;28;20063;-65
2021/05/24 01:19:02;;;;;;;5.25;2.55;;;;;;;;;;10359807;28;20083;-65
2021/05/24 01:24:01;;;;;;;4.18;2.40;;;;;;;;;;10361715;28;20040;-65
2021/05/24 01:28:59;;;;;;;5.88;2.22;;;;;;;;;;10361043;28;20082;-66
2021/05/24 01:33:58;;;;;;;3.20;2.28;;;;;;;;;;10360734;28;20493;-66
2021/05/24 01:38:56;;;;;;;4.53;3.20;;;;;;;;;;10360986;28;20044;-65
2021/05/24 01:43:55;;;;;;;7.20;2.95;;;;;;;;;;10360074;28;20063;-66
2021/05/24 01:48:52;;;;;;;4.32;2.63;;;;;;;;;;10358758;28;20449;-66
2021/05/24 01:53:50;;;;;;;8.52;2.92;;;;;;;;;;10360580;28;20043;-66
2021/05/24 01:58:48;;;;;;;6.65;3.25;;;;;;;;;;10360948;28;20048;-66
2021/05/24 02:03:47;;;;;;;5.65;3.75;;;;;;;;;;10361062;28;20040;-66
2021/05/24 02:08:45;;;;;;;6.88;2.88;;;;;;;;;;10360550;28;20083;-66
2021/05/24 02:13:43;;;;;;;7.25;2.97;;;;;;;;;;10360128;28;20043;-66
2021/05/24 02:18:41;;;;;;;4.38;2.65;;;;;;;;;;10357634;28;20063;-66
2021/05/24 02:23:40;;;;;;;4.53;3.08;;;;;;;;;;10355469;28;20076;-65
2021/05/24 02:28:38;;;;;;;6.85;3.10;;;;;;;;;;10358947;28;20075;-66
2021/05/24 02:33:36;;;;;;;5.72;3.45;;;;;;;;;;10359510;28;20305;-66
2021/05/24 02:38:34;;;;;;;4.70;3.20;;;;;;;;;;10357831;28;20055;-66
2021/05/24 02:43:32;;;;;;;6.07;3.15;;;;;;;;;;10358750;28;20517;-65
2021/05/24 02:48:30;;;;;;;7.95;3.97;;;;;;;;;;10358636;28;20071;-66
2021/05/24 02:53:28;;;;;;;7.65;3.70;;;;;;;;;;10358607;28;20055;-65
2021/05/24 02:58:26;;;;;;;9.23;4.35;;;;;;;;;;10358862;28;20044;-65
2021/05/24 03:03:25;;;;;;;6.35;3.63;;;;;;;;;;10358184;28;20531;-66
2021/05/24 03:08:24;;;;;;;5.07;3.92;;;;;;;;;;10358287;28;20044;-65
2021/05/24 03:13:25;;;;;;;7.50;4.30;;;;;;;;;;10355841;28;20071;-66
2021/05/24 03:18:23;;;;;;;9.93;4.97;;;;;;;;;;10357425;28;20044;-66
2021/05/24 03:23:22;;;;;;;7.43;4.18;;;;;;;;;;10357784;28;20069;-66
2021/05/24 03:28:20;;;;;;;5.72;4.70;;;;;;;;;;10357230;28;20044;-65
2021/05/24 03:33:18;;;;;;;10.60;5.30;;;;;;;;;;10356700;28;19963;-66
2021/05/24 03:38:16;;;;;;;6.95;4.80;;;;;;;;;;10357130;28;20043;-66
2021/05/24 03:43:14;;;;;;;7.82;5.30;;;;;;;;;;10356167;28;20048;-66
2021/05/24 03:48:12;;;;;;;10.07;5.50;;;;;;;;;;10351782;28;20064;-66
2021/05/24 03:53:10;;;;;;;8.73;5.72;;;;;;;;;;10357360;28;20496;-65
2021/05/24 03:58:08;;;;;;;17.10;6.70;;;;;;;;;;10362218;28;20076;-65
2021/05/24 04:03:07;;;;;;;11.63;6.43;;;;;;;;;;10363235;28;20075;-65
2021/05/24 04:08:06;;;;;;;11.43;6.60;;;;;;;;;;10363748;28;20048;-66
2021/05/24 04:13:04;;;;;;;11.07;6.68;;;;;;;;;;10363661;28;20075;-66
2021/05/24 04:18:05;;;;;;;9.95;6.70;;;;;;;;;;10362672;28;20048;-65
2021/05/24 04:23:04;;;;;;;13.35;7.50;;;;;;;;;;10355384;28;20061;-64
2021/05/24 04:28:02;;;;;;;9.85;7.35;;;;;;;;;;10364316;28;20074;-65
2021/05/24 04:33:00;;;;;;;12.20;6.90;;;;;;;;;;10363483;28;20075;-65
2021/05/24 04:37:57;;;;;;;14.70;7.50;;;;;;;;;;10362058;28;20111;-66
2021/05/24 04:42:57;;;;;;;8.75;6.20;;;;;;;;;;10361695;28;20083;-66
2021/05/24 04:47:55;;;;;;;9.90;6.10;;;;;;;;;;10357712;28;20078;-66
2021/05/24 04:52:53;;;;;;;9.75;6.65;;;;;;;;;;10356344;28;20095;-66
2021/05/24 04:57:51;;;;;;;8.98;6.70;;;;;;;;;;10357644;28;20072;-67
2021/05/24 05:02:50;;;;;;;16.48;6.05;;;;;;;;;;10356456;28;20075;-67
2021/05/24 05:07:48;;;;;;;10.50;6.65;;;;;;;;;;10360229;28;20048;-64
2021/05/24 05:12:46;;;;;;;9.35;6.13;;;;;;;;;;10360632;28;20082;-65
2021/05/24 05:17:44;;;;;;;8.07;6.47;;;;;;;;;;10360984;28;20059;-64
2021/05/24 05:22:43;;;;;;;9.63;5.93;;;;;;;;;;10360361;28;20079;-64
2021/05/24 05:27:40;;;;;;;7.95;6.03;;;;;;;;;;10360345;28;20036;-65
2021/05/24 05:32:39;;;;;;;9.68;6.75;;;;;;;;;;10359720;28;20083;-63
2021/05/24 05:37:36;;;;;;;9.98;5.80;;;;;;;;;;10359724;28;20055;-64
2021/05/24 05:42:35;;;;;;;6.72;4.65;;;;;;;;;;10359067;28;20055;-63
2021/05/24 05:47:33;;;;;;;7.50;5.38;;;;;;;;;;10359926;28;20083;-64
2021/05/24 05:52:34;;;;;;;6.60;4.78;;;;;;;;;;10358546;28;20480;-64
2021/05/24 05:57:32;;;;;;;7.50;4.50;;;;;;;;;;10359841;28;20194;-64
2021/05/24 06:02:31;;;;;;;7.88;4.38;;;;;;;;;;10359343;28;20489;-64
2021/05/24 06:07:29;;;;;;;6.93;4.35;;;;;;;;;;10358653;28;20084;-65
2021/05/24 06:12:27;;;;;;;11.48;4.30;;;;;;;;;;10358750;28;20074;-65
2021/05/24 06:17:25;;;;;;;7.40;5.30;;;;;;;;;;10358519;28;20108;-66
2021/05/24 06:22:24;;;;;;;8.18;3.45;;;;;;;;;;10356305;28;20468;-64
2021/05/24 06:27:22;;;;;;;9.63;4.13;;;;;;;;;;10357688;28;20080;-65
2021/05/24 06:32:20;;;;;;;9.23;4.05;;;;;;;;;;10357465;28;20091;-65
2021/05/24 06:37:18;;;;;;;7.03;3.47;;;;;;;;;;10357883;28;20493;-65
2021/05/24 06:42:17;;;;;;;7.03;5.00;;;;;;;;;;10357592;28;20528;-65
2021/05/24 06:47:15;;;;;;;5.60;3.47;;;;;;;;;;10357301;28;20051;-65
2021/05/24 06:52:13;;;;;;;10.38;5.53;;;;;;;;;;10357209;28;20075;-64
2021/05/24 06:57:11;;;;;;;7.75;4.60;;;;;;;;;;10357198;28;20504;-64
2021/05/24 07:02:10;;;;;;;12.77;3.22;;;;;;;;;;10356421;28;20513;-64
2021/05/24 07:07:08;;;;;;;10.10;3.85;;;;;;;;;;10356767;28;20527;-64
2021/05/24 07:12:06;;;;;;;8.07;3.83;;;;;;;;;;10356137;28;20477;-64
2021/05/24 07:17:07;;;;;;;5.25;3.08;;;;;;;;;;10355631;28;20103;-64
2021/05/24 07:22:06;;;;;;;8.80;3.03;;;;;;;;;;10355436;28;20044;-65
2021/05/24 07:27:05;;;;;;;6.15;2.40;;;;;;;;;;10356054;28;20070;-64
2021/05/24 07:32:03;;;;;;;6.13;2.08;;;;;;;;;;10354543;28;20076;-65
2021/05/24 07:37:01;;;;;;;8.20;3.83;;;;;;;;;;10355801;28;20052;-65
2021/05/24 07:42:01;;;;;;;5.60;3.72;;;;;;;;;;10355898;28;20047;-65
2021/05/24 07:47:00;;;;;;;13.50;3.67;;;;;;;;;;10355617;28;20079;-65
2021/05/24 07:51:58;;;;;;;10.75;3.38;;;;;;;;;;10355242;28;20078;-64
2021/05/24 07:56:56;;;;;;;10.23;1.83;;;;;;;;;;10355361;28;20059;-65
2021/05/24 08:01:55;;;;;;;8.25;2.80;;;;;;;;;;10355146;28;20497;-66
2021/05/24 08:06:52;;;;;;;4.97;2.05;;;;;;;;;;10355542;28;20477;-65
2021/05/24 08:11:50;;;;;;;3.70;2.13;;;;;;;;;;10354568;28;20075;-65
2021/05/24 08:16:49;;;;;;;5.88;2.10;;;;;;;;;;10355174;28;20041;-65
2021/05/24 08:21:49;;;;;;;5.63;3.15;;;;;;;;;;10354952;28;20446;-65
2021/05/24 08:26:47;;;;;;;8.43;5.43;;;;;;;;;;10355427;28;20051;-65
2021/05/24 08:31:45;;;;;;;4.25;2.13;;;;;;;;;;10354791;28;20084;-65
2021/05/24 08:36:43;;;;;;;2.50;1.88;;;;;;;;;;10354789;28;20048;-65
2021/05/24 08:41:42;;;;;;;3.80;1.90;;;;;;;;;;10356079;28;20051;-65
2021/05/24 08:46:44;;;;;;;6.22;1.67;;;;;;;;;;10362033;28;20052;-65
2021/05/24 08:51:56;;;;;;;2.92;1.95;;;;;;;;;;10360896;28;20088;-64
2021/05/24 08:56:54;;;;;;;4.75;2.08;;;;;;;;;;10361590;28;20040;-65
2021/05/24 09:01:52;;;;;;;6.50;2.05;;;;;;;;;;10361091;28;20071;-65
2021/05/24 09:06:52;;;;;;;3.03;1.92;;;;;;;;;;10361218;28;20068;-65
2021/05/24 09:11:54;;;;;;;4.05;1.63;;;;;;;;;;10360123;28;20099;-64
2021/05/24 09:16:57;;;;;;;4.38;2.17;;;;;;;;;;10360856;28;20067;-65
2021/05/24 09:21:56;;;;;;;4.22;1.50;;;;;;;;;;10360543;28;20090;-65
2021/05/24 09:26:55;;;;;;;2.47;1.50;;;;;;;;;;10359585;28;20102;-65
2021/05/24 09:32:11;;;;;;;2.33;1.67;;;;;;;;;;10359889;28;20084;-65
2021/05/24 09:37:10;;;;;;;4.18;2.40;;;;;;;;;;10359645;28;20533;-65
2021/05/24 09:42:08;;;;;;;5.45;2.15;;;;;;;;;;10359617;28;20047;-65
2021/05/24 09:47:06;;;;;;;8.77;2.25;;;;;;;;;;10359006;28;20044;-65
2021/05/24 09:52:04;;;;;;;5.65;3.00;;;;;;;;;;10358943;28;20083;-64
2021/05/24 09:57:05;;;;;;;2.45;1.80;;;;;;;;;;10358772;28;20507;-64
2021/05/24 10:02:06;;;;;;;2.97;2.25;;;;;;;;;;10359180;28;20048;-64
2021/05/24 10:07:05;;;;;;;2.55;1.77;;;;;;;;;;10358377;28;20040;-64
2021/05/24 10:12:05;;;;;;;6.47;2.40;;;;;;;;;;10359002;28;20080;-64
2021/05/24 10:17:05;;;;;;;5.53;1.70;;;;;;;;;;10358113;28;20079;-65
2021/05/24 10:22:03;;;;;;;3.25;1.92;;;;;;;;;;10358045;28;20478;-65
2021/05/24 10:27:01;;;;;;;5.22;2.38;;;;;;;;;;10358141;28;20405;-64
2021/05/24 10:32:01;;;;;;;7.60;3.10;;;;;;;;;;10357671;28;20083;-66
2021/05/24 10:37:05;;;;;;;5.05;1.98;;;;;;;;;;10357959;28;20320;-64
2021/05/24 10:42:05;;;;;;;8.13;4.65;;;;;;;;;;10357901;28;20100;-64
2021/05/24 10:47:15;;;;;;;1.67;1.50;;;;;;;;;;10357113;28;20076;-64
2021/05/24 10:52:13;;;;;;;5.53;1.90;;;;;;;;;;10357142;28;20501;-65
2021/05/24 10:57:18;;;;;;;3.70;1.90;;;;;;;;;;10357308;28;20075;-64
2021/05/24 11:02:24;;;;;;;2.88;2.45;;;;;;;;;;10356604;28;20054;-65
2021/05/24 11:07:22;;;;;;;4.15;2.47;;;;;;;;;;10356248;28;20069;-65
2021/05/24 11:12:30;;;;;;;3.75;1.50;;;;;;;;;;10356443;28;20072;-64
2021/05/24 11:17:49;;;;;;;5.57;2.50;;;;;;;;;;10356695;28;20468;-65
2021/05/24 11:23:06;;;;;;;5.80;2.30;;;;;;;;;;10356360;28;20052;-64
2021/05/24 11:28:12;;;;;;;5.97;2.30;;;;;;;;;;10355490;28;20088;-64
2021/05/24 11:33:25;;;;;;;5.30;2.92;;;;;;;;;;10355470;28;20083;-65
2021/05/24 11:38:30;;;;;;;3.88;1.95;;;;;;;;;;10355948;28;20048;-65
2021/05/24 11:43:28;;;;;;;2.50;2.20;;;;;;;;;;10355772;28;20087;-65
2021/05/24 11:48:39;;;;;;;3.08;2.03;;;;;;;;;;10355197;28;20516;-66
2021/05/24 11:53:38;;;;;;;4.55;2.63;;;;;;;;;;10355996;28;20328;-65
2021/05/24 11:58:54;;;;;;;6.68;2.38;;;;;;;;;;10355490;28;20091;-65
2021/05/24 12:03:52;;;;;;;4.50;2.42;;;;;;;;;;10354993;28;20072;-63
2021/05/24 12:08:51;;;;;;;2.08;1.70;;;;;;;;;;10355333;28;20055;-63
2021/05/24 12:13:59;;;;;;;6.65;2.72;;;;;;;;;;10353117;28;20048;-64
2021/05/24 12:18:57;;;;;;;7.55;2.45;;;;;;;;;;10360445;28;20501;-64
2021/05/24 12:23:58;;;;;;;5.78;3.45;;;;;;;;;;10362515;28;20039;-64
2021/05/24 12:28:56;;;;;;;3.55;2.85;;;;;;;;;;10362938;28;20075;-64
2021/05/24 12:33:56;;;;;;;7.93;2.22;;;;;;;;;;10362826;28;20135;-64
2021/05/24 12:38:57;;;;;;;5.43;2.83;;;;;;;;;;10362719;28;20044;-64
2021/05/24 12:43:57;;;;;;;6.85;2.60;;;;;;;;;;10360292;28;20052;-65
2021/05/24 12:48:57;;;;;;;4.20;1.73;;;;;;;;;;10362376;28;20052;-64
2021/05/24 12:53:56;;;;;;;3.33;2.03;;;;;;;;;;10362188;28;20067;-65
2021/05/24 12:58:54;;;;;;;3.88;1.67;;;;;;;;;;10361745;28;20044;-68
2021/05/24 13:03:54;;;;;;;6.95;3.38;;;;;;;;;;10361057;28;20484;-66
2021/05/24 13:08:53;;;;;;;3.90;2.13;;;;;;;;;;10361633;28;20068;-65
2021/05/24 13:14:01;;;;;;;3.38;2.33;;;;;;;;;;10361048;28;20077;-65
2021/05/24 13:19:27;;;;;;;6.22;2.20;;;;;;;;;;10361490;28;20492;-65
2021/05/24 13:24:47;;;;;;;6.07;2.40;;;;;;;;;;10361251;28;20048;-65
2021/05/24 13:29:50;;;;;;;3.97;1.70;;;;;;;;;;10358736;28;20059;-65
2021/05/24 13:34:49;;;;;;;;;;;;;;;;;;10360165;28;20090;-65
2021/05/24 13:39:57;;;;;;;5.15;2.65;;;;;;;;;;10360687;28;19924;-65
2021/05/24 13:44:55;;;;;;;2.92;2.60;;;;;;;;;;10359082;28;20075;-65
2021/05/24 13:49:53;;;;;;;9.55;2.90;;;;;;;;;;10359401;28;20520;-66
2021/05/24 13:54:51;;;;;;;5.15;3.08;;;;;;;;;;10359427;28;20083;-66
2021/05/24 13:59:49;;;;;;;5.47;3.17;;;;;;;;;;10359789;28;20055;-66
2021/05/24 14:04:47;;;;;;;7.15;3.78;;;;;;;;;;10359575;28;20048;-66
2021/05/24 14:09:45;;;;;;;7.50;3.85;;;;;;;;;;10358814;28;20079;-67
2021/05/24 14:14:43;;;;;;;6.88;2.15;;;;;;;;;;10358346;28;20075;-66
2021/05/24 14:19:42;;;;;;;8.27;3.58;;;;;;;;;;10357594;28;20044;-66
2021/05/24 14:24:40;;;;;;;7.70;3.58;;;;;;;;;;10358354;28;20083;-64
2021/05/24 14:29:38;;;;;;;3.15;2.28;;;;;;;;;;10358173;28;20071;-65
2021/05/24 14:34:35;;;;;;;2.75;2.35;;;;;;;;;;10358755;28;20072;-65
2021/05/24 14:39:34;;;;;;;4.78;3.28;;;;;;;;;;10356579;28;20052;-66
2021/05/24 14:44:32;;;;;;;3.95;3.35;;;;;;;;;;10358095;28;20060;-67
2021/05/24 14:49:32;;;;;;;3.38;2.20;;;;;;;;;;10357587;28;20303;-65
2021/05/24 14:54:30;;;;;;;5.10;3.50;;;;;;;;;;10357908;28;20078;-66
2021/05/24 14:59:29;;;;;;;11.52;4.07;;;;;;;;;;10357658;28;20070;-67
2021/05/24 15:04:27;;;;;;;3.92;3.33;;;;;;;;;;10355755;28;20040;-65
2021/05/24 15:09:28;;;;;;;3.22;2.47;;;;;;;;;;10356873;28;20055;-65
2021/05/24 15:14:27;;;;;;;2.80;2.15;;;;;;;;;;10356469;28;20098;-67
2021/05/24 15:19:26;;;;;;;8.55;2.10;;;;;;;;;;10357055;28;20044;-67
2021/05/24 15:24:24;;;;;;;4.38;3.03;;;;;;;;;;10356596;28;20075;-66
2021/05/24 15:29:25;;;;;;;4.82;2.28;;;;;;;;;;10356458;28;20048;-67
2021/05/24 15:34:25;;;;;;;5.43;2.70;;;;;;;;;;10356531;28;20086;-66
2021/05/24 15:39:24;;;;;;;12.30;8.57;;;;;;;;;;10356120;28;20048;-67
2021/05/24 15:44:22;;;;;;;3.55;2.85;;;;;;;;;;10356792;28;20059;-64
2021/05/24 15:49:20;;;;;;;4.97;2.40;;;;;;;;;;10355941;28;20587;-67
2021/05/24 15:54:18;;;;;;;2.58;2.17;;;;;;;;;;10362439;28;20126;-65
2021/05/24 15:59:16;;;;;;;6.15;2.58;;;;;;;;;;10363558;28;20076;-67
2021/05/24 16:04:16;;;;;;;5.22;2.60;;;;;;;;;;10364544;28;20044;-67
2021/05/24 16:09:14;;;;;;;6.07;4.00;;;;;;;;;;10363416;28;20056;-67
2021/05/24 16:14:13;;;;;;;5.45;2.90;;;;;;;;;;10362837;28;20075;-67
2021/05/24 16:19:14;;;;;;;4.88;4.28;;;;;;;;;;10363304;28;20079;-65
2021/05/24 16:24:22;;;;;;;6.22;4.63;;;;;;;;;;10363512;28;20044;-66
2021/05/24 16:29:19;;;;;;;6.80;4.60;;;;;;;;;;10363033;28;20056;-66
2021/05/24 16:34:18;;;;;;;5.47;4.70;;;;;;;;;;10362556;28;20489;-66
2021/05/24 16:39:16;;;;;;;9.15;5.07;;;;;;;;;;10362831;28;20069;-67
2021/05/24 16:44:14;;;;;;;8.57;4.65;;;;;;;;;;10362372;28;20068;-67
2021/05/24 16:49:12;;;;;;;8.52;7.07;;;;;;;;;;10362271;28;20532;-67
2021/05/24 16:54:11;;;;;;;12.75;7.50;;;;;;;;;;10359886;28;20154;-66
2021/05/24 16:59:09;;;;;;;9.02;4.22;;;;;;;;;;10361511;28;20080;-66
2021/05/24 17:04:06;;;;;;;12.90;5.93;;;;;;;;;;10359502;28;20094;-65
2021/05/24 17:09:05;;;;;;;11.60;5.15;;;;;;;;;;10354517;28;20064;-64
2021/05/24 17:14:04;;;;;;;15.25;9.15;;;;;;;;;;10353151;28;20071;-65
2021/05/24 17:19:02;;;;;;;12.18;7.40;;;;;;;;;;10347251;28;20078;-64
2021/05/24 17:24:00;;;;;;;11.25;6.13;;;;;;;;;;10347583;28;20068;-65
2021/05/24 17:28:57;;;;;;;8.18;5.68;;;;;;;;;;10345767;28;20067;-65
2021/05/24 17:33:56;;;;;;;10.82;4.70;;;;;;;;;;10341490;28;20079;-66
2021/05/24 17:38:54;;;;;;;12.82;5.90;;;;;;;;;;10359182;28;20068;-64
2021/05/24 17:43:52;;;;;;;10.45;4.82;;;;;;;;;;10356530;28;20064;-66
2021/05/24 17:48:51;;;;;;;8.38;6.07;;;;;;;;;;10358615;28;20043;-64
2021/05/24 17:53:50;;;;;;;7.05;4.70;;;;;;;;;;10360310;28;20062;-65
2021/05/24 17:58:48;;;;;;;6.68;3.60;;;;;;;;;;10359784;28;20067;-65
2021/05/24 18:03:45;;;;;;;4.70;3.40;;;;;;;;;;10358526;28;20032;-64
2021/05/24 18:08:44;;;;;;;14.25;3.05;;;;;;;;;;10359303;28;20063;-65
2021/05/24 18:13:43;;;;;;;6.22;2.30;;;;;;;;;;10358339;28;20072;-64
2021/05/24 18:18:43;;;;;;;9.55;3.20;;;;;;;;;;10355849;28;20496;-64
2021/05/24 18:23:42;;;;;;;2.85;2.50;;;;;;;;;;10353559;28;20079;-64
2021/05/24 18:28:40;;;;;;;9.70;2.65;;;;;;;;;;10349518;28;20075;-63
2021/05/24 18:33:39;;;;;;;11.75;2.90;;;;;;;;;;10341510;28;20493;-64
2021/05/24 18:38:39;;;;;;;5.90;2.85;;;;;;;;;;10345207;28;20068;-65
2021/05/24 18:43:38;;;;;;;9.07;3.22;;;;;;;;;;10348418;28;20075;-63
2021/05/24 18:48:37;;;;;;;8.65;2.60;;;;;;;;;;10341147;28;20139;-64
2021/05/24 18:53:37;;;;;;;4.25;2.08;;;;;;;;;;10347737;28;20508;-64
2021/05/24 18:58:35;;;;;;;3.58;1.67;;;;;;;;;;10357948;28;20054;-65
2021/05/24 19:03:33;;;;;;;4.57;1.85;;;;;;;;;;10342481;28;20464;-66
2021/05/24 19:08:31;;;;;;;2.08;1.60;;;;;;;;;;10356430;28;20051;-65
2021/05/24 19:13:30;;;;;;;4.90;1.92;;;;;;;;;;10322105;28;20086;-66
2021/05/24 19:18:29;;;;;;;3.80;1.52;;;;;;;;;;10353215;28;20310;-65
2021/05/24 19:23:29;;;;;;;4.43;1.65;;;;;;;;;;10345663;28;20082;-65
2021/05/24 19:28:29;;;;;;;2.60;1.52;;;;;;;;;;10356854;28;20047;-65
2021/05/24 19:33:28;;;;;;;4.32;1.70;;;;;;;;;;10351508;28;20064;-66
2021/05/24 19:38:26;;;;;;;4.60;1.58;;;;;;;;;;10354726;28;20079;-65
2021/05/24 19:43:24;;;;;;;7.05;1.27;;;;;;;;;;10356318;28;20519;-64
2021/05/24 20:25:17;;;;;;;4.25;2.03;;;;;;;;;;10348977;28;20064;-66
2021/05/24 20:30:15;;;;;;;4.60;1.70;;;;;;;;;;10354840;28;20071;-66
2021/05/24 20:35:13;;;;;;;3.88;1.73;;;;;;;;;;10356485;28;20075;-65
2021/05/24 20:40:11;;;;;;;4.32;1.80;;;;;;;;;;10360626;28;20052;-64
2021/05/24 20:45:10;;;;;;;4.18;1.60;;;;;;;;;;10355798;28;20044;-66
2021/05/24 20:50:09;;;;;;;3.30;1.85;;;;;;;;;;10362884;28;20064;-66
2021/05/24 20:55:07;;;;;;;8.80;1.85;;;;;;;;;;10361945;28;20090;-65
2021/05/24 21:00:06;;;;;;;4.53;1.75;;;;;;;;;;10357916;28;20512;-64
2021/05/24 21:05:06;;;;;;;5.18;1.92;;;;;;;;;;10353672;28;20476;-65
2021/05/24 21:10:04;;;;;;;3.25;1.85;;;;;;;;;;10362287;28;20051;-65
2021/05/24 21:15:02;;;;;;;2.88;1.63;;;;;;;;;;10361327;28;20084;-65
2021/05/24 21:20:00;;;;;;;9.80;2.28;;;;;;;;;;10360546;28;20071;-65
2021/05/24 21:24:59;;;;;;;2.45;1.60;;;;;;;;;;10362928;28;20125;-65
2021/05/24 21:29:57;;;;;;;3.25;1.73;;;;;;;;;;10362091;28;20059;-66
2021/05/24 21:40:12;;;;;;;2.33;1.25;;;;;;;;;;10361560;28;20048;-65
2021/05/24 21:45:10;;;;;;;5.53;1.50;;;;;;;;;;10359414;28;20071;-65
2021/05/24 21:50:09;;;;;;;1.38;1.27;;;;;;;;;;10357569;28;20044;-66
2021/05/24 21:55:08;;;;;;;3.85;1.40;;;;;;;;;;10360003;28;20064;-66
2021/05/24 22:00:09;;;;;;;3.25;1.20;;;;;;;;;;10359707;28;20524;-64
2021/05/24 22:05:08;;;;;;;1.95;1.58;;;;;;;;;;10343515;28;20059;-65
2021/05/24 22:10:10;;;;;;;7.53;1.45;;;;;;;;;;10355827;28;20072;-65
2021/05/24 22:15:09;;;;;;;1.98;1.23;;;;;;;;;;10356822;28;20064;-66
2021/05/24 22:20:09;;;;;;;1.85;1.10;;;;;;;;;;10357480;28;20501;-66
2021/05/24 22:25:07;;;;;;;1.95;1.10;;;;;;;;;;10358886;28;20076;-65
2021/05/24 22:30:06;;;;;;;4.45;1.48;;;;;;;;;;10358094;28;20107;-65
2021/05/24 22:35:06;;;;;;;6.20;2.05;;;;;;;;;;10359624;28;20090;-66
2021/05/24 22:40:05;;;;;;;2.08;1.20;;;;;;;;;;10358805;28;20083;-65
2021/05/24 22:45:04;;;;;;;1.75;1.10;;;;;;;;;;10358150;28;20066;-66
2021/05/24 22:50:09;;;;;;;8.93;2.22;;;;;;;;;;10358888;28;20055;-66
2021/05/24 22:55:08;;;;;;;2.38;1.65;;;;;;;;;;10358745;28;20071;-65
2021/05/24 23:00:07;;;;;;;2.70;1.75;;;;;;;;;;10358617;28;20059;-65
2021/05/24 23:05:06;;;;;;;3.15;1.80;;;;;;;;;;10357653;28;20076;-64
2021/05/24 23:10:04;;;;;;;7.97;1.50;;;;;;;;;;10358168;28;20265;-64
2021/05/24 23:15:04;;;;;;;2.45;1.48;;;;;;;;;;10358889;28;20090;-64
2021/05/24 23:20:02;;;;;;;3.00;1.70;;;;;;;;;;10358291;28;20489;-65
2021/05/24 23:25:00;;;;;;;2.55;1.90;;;;;;;;;;10358306;28;20044;-65
2021/05/24 23:29:58;;;;;;;2.08;1.60;;;;;;;;;;10358210;28;20071;-64
2021/05/24 23:34:57;;;;;;;4.32;1.75;;;;;;;;;;10358033;28;20044;-64
2021/05/24 23:39:54;;;;;;;3.13;2.15;;;;;;;;;;10357172;28;20059;-64
2021/05/24 23:44:52;;;;;;;2.33;2.00;;;;;;;;;;10357776;28;20055;-64
2021/05/24 23:49:50;;;;;;;2.47;1.88;;;;;;;;;;10357835;28;20048;-64
2021/05/24 23:54:49;;;;;;;2.92;2.00;;;;;;;;;;10357598;28;20472;-64
2021/05/24 23:59:47;;;;;;;2.28;1.65;;;;;;;;;;10357184;28;20508;-65
